Nearby METAR Reports

 

KOAK - Oakland, California, USA
Distance from station: SSW 6mi, 9km
Updated: Wed, 20-Jun-2018 4:53am PDT
Overcast
Overcast
 Wind from W
Wind: W 10 mph , 17 km/h
Temperature: 54°F , 12°C
Dew Point: 52°F , 11°C
Humidity: 94%
Barometer: 30.02 inHg , 1016.6 hPa
Clouds: Overcast
Visibility: 10 miles , 16 km
Cloud details: Overcast 800 ft
2018/06/20 11:53 KOAK 201153Z 28009KT 10SM OVC008 12/11 A3002 RMK AO2 SLP165 T01220106 10128 20122 51003
KHWD - Hayward, California, USA
Distance from station: SSE 8mi, 12km
Updated: Wed, 20-Jun-2018 5:45am PDT
Overcast
Overcast
 Wind from W
Wind: W 6 mph , 9 km/h
Temperature: 55°F , 13°C
Dew Point: 50°F , 10°C
Humidity: 82%
Barometer: 30.02 inHg , 1016.6 hPa
Clouds: Overcast
Visibility: 10 miles , 16 km
Cloud details: Overcast 1000 ft
2018/06/20 12:45 KHWD 201245Z 26005KT 10SM OVC010 13/10 A3002 RMK AO2 T01330100
KSFO - San Francisco, California, USA
Distance from station: SW 15mi, 25km
Updated: Wed, 20-Jun-2018 4:56am PDT
Overcast
Overcast
 Wind from W
Wind: W 14 mph , 22 km/h
Temperature: 55°F , 13°C
Dew Point: 50°F , 10°C
Humidity: 82%
Barometer: 30.01 inHg , 1016.3 hPa
Clouds: Overcast
Visibility: 10 miles , 16 km
Cloud details: Partly cloudy 700 ft
Overcast 1000 ft
2018/06/20 11:56 KSFO 201156Z 28012KT 10SM SCT007 OVC010 13/10 A3001 RMK AO2 SLP163 T01330100 10133 20128 51003 $
 
KCCR - Concord, California, USA
Distance from station: NNE 17mi, 27km
Updated: Wed, 20-Jun-2018 4:53am PDT
Clear
Clear
 Wind from SSW
Wind: SSW 9 mph , 15 km/h
Temperature: 55°F , 13°C
Dew Point: 50°F , 10°C
Humidity: 82%
Barometer: 29.98 inHg , 1015.2 hPa
Clouds: Clear
Visibility: 10 miles , 16 km
2018/06/20 11:53 KCCR 201153Z AUTO 21008KT 10SM CLR 13/10 A2998 RMK AO2 SLP139 T01330100 10167 20133 53006
KSQL - San Carlos Airpo, California, USA
Distance from station: SSW 18mi, 29km
Updated: Wed, 20-Jun-2018 5:40am PDT
Overcast
Overcast
 Wind from NW
Wind: NW 8 mph , 13 km/h
Temperature: 54°F , 12°C
Dew Point: 50°F , 10°C
Humidity: 88%
Barometer: 30.02 inHg , 1016.6 hPa
Clouds: Overcast
Visibility: 10 miles , 16 km
Cloud details: Overcast 1300 ft
2018/06/20 12:40 KSQL 201240Z AUTO 31007KT 10SM OVC013 12/10 A3002 RMK AO2
KLVK - Livermore, California, USA
Distance from station: ESE 20mi, 31km
Updated: Wed, 20-Jun-2018 5:29am PDT
Mostly cloudy
Mostly cloudy
 Wind from W
Wind: W 9 mph , 15 km/h
Temperature: 54°F , 12°C
Barometer: 30.00 inHg , 1015.9 hPa
Clouds: Mostly cloudy
Visibility: 10 miles , 16 km
Cloud details: Mostly cloudy 1200 ft
2018/06/20 12:29 KLVK 201229Z AUTO 28008KT 10SM BKN012 12/ A3000 RMK AO2 T0117 $
 
KPAO - Palo Alto, California, USA
Distance from station: S 21mi, 34km
Updated: Tue, 19-Jun-2018 8:47pm PDT
NOT Current
Clear
Clear
 Wind from NW
Wind: NW 7 mph , 11 km/h
Temperature: 59°F , 15°C
Dew Point: 54°F , 12°C
Humidity: 82%
Barometer: 30.03 inHg , 1016.9 hPa
Clouds: Clear
Visibility: 10 miles , 16 km
2018/06/20 03:47 KPAO 200347Z 32006KT 10SM SKC 15/12 A3003 RMK LAST
KHAF - Half Moon Bay, California, USA
Distance from station: SW 25mi, 41km
Updated: Wed, 20-Jun-2018 5:35am PDT
Overcast
Overcast
 Wind from NNW
Wind: NNW 8 mph , 13 km/h
Temperature: 54°F , 12°C
Dew Point: 50°F , 10°C
Humidity: 88%
Barometer: 30.03 inHg , 1016.9 hPa
Clouds: Overcast
Visibility: 9 miles , 14 km
Cloud details: Overcast 600 ft
2018/06/20 12:35 KHAF 201235Z AUTO 34007KT 9SM OVC006 12/10 A3003 RMK AO2
KNUQ - Moffett Nas/Mtn, California, USA
Distance from station: SSE 26mi, 42km
Updated: Wed, 20-Jun-2018 4:56am PDT
Overcast
Overcast
 Wind from NNW
Wind: NNW 7 mph , 11 km/h
Temperature: 55°F , 13°C
Dew Point: 52°F , 11°C
Humidity: 88%
Barometer: 30.03 inHg , 1016.9 hPa
Clouds: Overcast
Visibility: 10 miles , 16 km
Cloud details: Overcast 1400 ft
2018/06/20 11:56 KNUQ 201156Z 33006KT 10SM OVC014 13/11 A3003 RMK AO2 SLP170 T01280106 10144 20128 53005
 
KAPC - Napa, California, USA
Distance from station: NNW 30mi, 49km
Updated: Wed, 20-Jun-2018 4:54am PDT
Overcast
Overcast
 Wind from W
Wind: W 12 mph , 19 km/h
Temperature: 54°F , 12°C
Dew Point: 50°F , 10°C
Humidity: 88%
Barometer: 29.99 inHg , 1015.6 hPa
Clouds: Overcast
Visibility: 10 miles , 16 km
Cloud details: Overcast 700 ft
2018/06/20 11:54 KAPC 201154Z 26010KT 10SM OVC007 12/10 A2999 RMK AO2 SLP148 T01170100 10122 20100 51005
KSJC - San Jose, California, USA
Distance from station: SSE 31mi, 50km
Updated: Wed, 20-Jun-2018 4:53am PDT
Overcast
Overcast
 Wind from NNW
Wind: NNW 9 mph , 15 km/h
Temperature: 57°F , 14°C
Dew Point: 52°F , 11°C
Humidity: 82%
Barometer: 30.02 inHg , 1016.6 hPa
Clouds: Overcast
Visibility: 10 miles , 16 km
Cloud details: Overcast 1100 ft
2018/06/20 11:53 KSJC 201153Z AUTO 33008KT 10SM OVC011 14/11 A3002 RMK AO2 SLP164 T01390111 10150 20139 53005
KDVO - Novato/Gnoss Fld, California, USA
Distance from station: NW 34mi, 54km
Updated: Wed, 20-Jun-2018 5:35am PDT
Mostly cloudy
Mostly cloudy
 Wind from E
Wind: E 3 mph , 6 km/h
Temperature: 52°F , 11°C
Dew Point: 50°F , 10°C
Humidity: 94%
Barometer: 29.99 inHg , 1015.6 hPa
Clouds: Mostly cloudy
Visibility: 10 miles , 16 km
Cloud details: Mostly cloudy 1000 ft
2018/06/20 12:35 KDVO 201235Z AUTO 08003KT 10SM BKN010 11/10 A2999 RMK AO2
 
KRHV - San Jose/Reid, California, USA
Distance from station: SSE 37mi, 59km
Updated: Tue, 19-Jun-2018 9:47pm PDT
NOT Current
Clear
Clear
 Wind from NW
Wind: NW 9 mph , 15 km/h
Temperature: 61°F , 16°C
Dew Point: 54°F , 12°C
Humidity: 77%
Barometer: 30.02 inHg , 1016.6 hPa
Clouds: Clear
Visibility: 10 miles , 16 km
2018/06/20 04:47 KRHV 200447Z 31008KT 10SM SKC 16/12 A3002 RMK LAST
KSUU - Travis Afb/Fairf, California, USA
Distance from station: NNE 37mi, 59km
Updated: Wed, 20-Jun-2018 4:58am PDT
Clear
Clear
 Wind from SW
Wind: SW 24 mph , 39 km/h, Gust: 32 mph , 52 km/h
Temperature: 52°F , 11°C
Dew Point: 48°F , 9°C
Humidity: 88%
Barometer: 29.90 inHg , 1012.5 hPa
Clouds: Clear
Visibility: 10 miles , 16 km
2018/06/20 11:58 KSUU 201158Z AUTO 22021G28KT 10SM CLR 11/09 A2990 RMK AO2 PK WND 23033/11 SLP132 T01110092 10146 20111 $
KO69 - Petaluma, California, USA
Distance from station: NW 41mi, 66km
Updated: Wed, 20-Jun-2018 5:35am PDT
Overcast
Overcast
 Wind from WNW
Wind: WNW 7 mph , 11 km/h
Temperature: 52°F , 11°C
Dew Point: 52°F , 11°C
Humidity: 100%
Barometer: 30.00 inHg , 1015.9 hPa
Clouds: Overcast
Visibility: 9 miles , 14 km
Cloud details: Overcast 500 ft
2018/06/20 12:35 KO69 201235Z AUTO 29006KT 9SM OVC005 11/11 A3000 RMK A01
 
KVCB - Vacaville, California, USA
Distance from station: NNE 44mi, 71km
Updated: Wed, 20-Jun-2018 4:53am PDT
Clear
Clear
 Wind from WSW
Wind: WSW 8 mph , 13 km/h
Temperature: 57°F , 14°C
Dew Point: 50°F , 10°C
Humidity: 77%
Barometer: 29.91 inHg , 1012.9 hPa
Clouds: Clear
Visibility: 10 miles , 16 km
2018/06/20 11:53 KVCB 201153Z AUTO 24007KT 10SM CLR 14/10 A2991 RMK AO2 SLP127 T01440100 10217 20144 51002